Time;durP1;ratioP1;P1;durP2;ratioP2;P2;SDS_P1;SDS_P2;PMS_P1;PMS_P2;Temp;Humidity;BMP_temperature;BMP_pressure;BME280_temperature;BME280_humidity;BME280_pressure;Samples;Min_cycle;Max_cycle;Signal;HPM_P1;HPM_P2
2021/06/13 00:00:36;;;;;;;8.13;2.47;;;;;;;11.16;76.19;101678.72;126716;1093;63438;-79
2021/06/13 00:03:03;;;;;;;8.63;2.40;;;;;;;11.12;76.75;101682.67;126643;1093;62981;-80
2021/06/13 00:05:30;;;;;;;6.57;2.17;;;;;;;11.09;76.55;101680.31;126793;1093;62884;-81
2021/06/13 00:07:57;;;;;;;9.10;2.60;;;;;;;11.06;76.87;101680.63;126792;1093;62925;-80
2021/06/13 00:10:24;;;;;;;11.23;3.60;;;;;;;11.04;76.68;101680.77;126738;1093;62749;-80
2021/06/13 00:12:51;;;;;;;5.57;1.73;;;;;;;11.04;77.44;101691.40;126812;1091;62977;-79
2021/06/13 00:15:23;;;;;;;7.77;2.40;;;;;;;11.04;76.90;101687.91;126667;1092;62753;-80
2021/06/13 00:17:52;;;;;;;9.43;3.00;;;;;;;11.00;77.32;101696.17;126921;1092;63116;-80
2021/06/13 00:20:22;;;;;;;13.63;2.93;;;;;;;10.98;77.07;101692.83;126839;1092;62910;-80
2021/06/13 00:22:51;;;;;;;10.03;3.57;;;;;;;10.96;77.24;101702.77;126831;1093;62200;-79
2021/06/13 00:25:18;;;;;;;6.90;3.37;;;;;;;10.97;77.21;101690.35;126802;1093;63684;-80
2021/06/13 00:27:45;;;;;;;8.57;2.47;;;;;;;10.96;77.45;101700.11;126796;1092;62146;-81
2021/06/13 00:30:13;;;;;;;8.67;2.53;;;;;;;10.95;77.57;101698.46;126621;1093;62852;-80
2021/06/13 00:32:42;;;;;;;10.23;3.37;;;;;;;10.91;77.46;101691.79;126689;1093;62831;-81
2021/06/13 00:35:09;;;;;;;16.47;4.30;;;;;;;10.87;77.52;101694.91;126506;1092;63109;-80
2021/06/13 00:37:36;;;;;;;12.17;3.43;;;;;;;10.85;77.01;101696.88;126800;1093;63121;-81
2021/06/13 00:40:05;;;;;;;5.23;1.90;;;;;;;10.82;77.55;101708.64;126579;1093;62235;-81
2021/06/13 00:42:33;;;;;;;12.40;2.97;;;;;;;10.81;78.08;101701.64;126833;1093;64548;-80
2021/06/13 00:45:00;;;;;;;9.43;3.20;;;;;;;10.78;78.41;101696.66;126786;1093;64125;-80
2021/06/13 00:47:26;;;;;;;10.47;3.00;;;;;;;10.78;78.30;101696.66;126373;1093;63167;-80
2021/06/13 00:49:54;;;;;;;9.97;2.87;;;;;;;10.76;77.94;101703.93;126754;1093;64856;-81
2021/06/13 00:52:25;;;;;;;17.43;3.47;;;;;;;10.74;77.82;101711.20;126771;1093;62935;-79
2021/06/13 00:54:52;;;;;;;7.13;1.87;;;;;;;10.71;78.01;101699.08;126904;1093;62247;-79
2021/06/13 00:57:20;;;;;;;10.47;2.93;;;;;;;10.70;78.53;101709.84;126923;1093;62070;-80
2021/06/13 00:59:47;;;;;;;11.57;2.70;;;;;;;10.67;78.30;101716.29;126883;1093;62768;-79
2021/06/13 01:02:14;;;;;;;10.43;3.70;;;;;;;10.61;78.84;101709.75;126790;1093;63854;-79
2021/06/13 01:04:41;;;;;;;8.50;3.27;;;;;;;10.58;79.05;101715.38;126570;1093;63387;-79
2021/06/13 01:07:20;;;;;;;10.97;3.57;;;;;;;10.56;79.74;101713.83;126844;1093;63005;-80
2021/06/13 01:09:58;;;;;;;10.47;3.00;;;;;;;10.57;78.56;101715.52;126920;1093;62185;-80
2021/06/13 01:12:31;;;;;;;7.20;2.57;;;;;;;10.54;79.42;101721.10;126528;1093;63464;-79
2021/06/13 01:15:16;;;;;;;16.37;4.63;;;;;;;10.53;79.74;101720.27;126849;1093;64222;-80
2021/06/13 01:18:05;;;;;;;9.30;2.77;;;;;;;10.51;79.82;101721.42;126503;1093;63026;-80
2021/06/13 01:20:58;;;;;;;12.40;3.40;;;;;;;10.48;79.82;101721.73;126893;1093;63391;-81
2021/06/13 01:23:44;;;;;;;9.20;2.43;;;;;;;10.45;80.85;101722.84;126703;1093;62878;-80
2021/06/13 01:26:36;;;;;;;9.40;2.87;;;;;;;10.48;80.82;101721.73;126839;1093;62627;-80
2021/06/13 01:29:12;;;;;;;7.77;2.70;;;;;;;10.49;80.07;101718.08;126700;1093;63151;-80
2021/06/13 01:31:42;;;;;;;9.63;2.83;;;;;;;10.47;80.71;101723.52;126595;1093;62792;-81
2021/06/13 01:34:14;;;;;;;8.03;3.57;;;;;;;10.45;80.49;101728.14;126615;1092;63054;-80
2021/06/13 01:36:42;;;;;;;7.70;2.43;;;;;;;10.43;80.45;101730.11;126830;1093;62193;-81
2021/06/13 01:39:13;;;;;;;10.30;3.07;;;;;;;10.43;80.27;101723.97;126472;1093;62948;-80
2021/06/13 01:41:42;;;;;;;15.70;3.73;;;;;;;10.41;80.88;101732.07;126429;1093;62762;-79
2021/06/13 01:44:10;;;;;;;7.97;2.60;;;;;;;10.39;80.73;101736.69;126645;1092;63212;-78
2021/06/13 01:46:40;;;;;;;16.20;4.27;;;;;;;10.37;80.56;101725.39;126769;1093;62178;-80
2021/06/13 01:49:07;;;;;;;5.50;2.50;;;;;;;10.34;80.79;101725.70;126834;1093;62830;-80
2021/06/13 01:51:40;;;;;;;10.87;3.20;;;;;;;10.33;80.93;101729.35;126816;1093;62586;-79
2021/06/13 01:54:08;;;;;;;13.27;3.60;;;;;;;10.31;81.61;101733.97;126662;1093;63070;-78
2021/06/13 01:56:43;;;;;;;13.00;3.00;;;;;;;10.29;81.90;101738.55;126809;1092;62418;-78
2021/06/13 01:59:12;;;;;;;8.90;2.63;;;;;;;10.26;81.27;101737.00;126880;1093;63005;-78
2021/06/13 02:01:40;;;;;;;6.57;2.83;;;;;;;10.23;81.73;101744.44;126788;1093;62929;-79
2021/06/13 02:04:10;;;;;;;10.47;2.80;;;;;;;10.20;81.77;101746.40;126549;1093;62958;-79
2021/06/13 02:06:42;;;;;;;10.70;4.60;;;;;;;10.16;81.56;101747.67;127472;1093;62144;-80
2021/06/13 02:09:10;;;;;;;7.97;2.33;;;;;;;10.13;81.87;101745.30;127913;1093;62781;-79
2021/06/13 02:11:43;;;;;;;8.80;2.57;;;;;;;10.11;82.13;101747.26;126939;1092;62927;-78
2021/06/13 02:14:12;;;;;;;4.97;2.30;;;;;;;10.10;82.15;101745.60;126800;1093;63102;-78
2021/06/13 02:16:41;;;;;;;6.77;2.30;;;;;;;10.10;82.61;101744.77;126708;1093;62228;-78
2021/06/13 02:19:10;;;;;;;8.03;3.20;;;;;;;10.09;81.98;101738.61;126310;1093;63095;-78
2021/06/13 02:21:45;;;;;;;8.60;4.10;;;;;;;10.06;81.77;101744.22;126797;1093;62986;-78
2021/06/13 02:24:12;;;;;;;;;;;;;;;10.04;82.83;101740.05;126341;1093;62910;-78
2021/06/13 02:26:40;;;;;;;9.70;3.00;;;;;;;10.04;82.40;101742.70;126261;1093;62949;-79
2021/06/13 02:29:09;;;;;;;9.73;3.23;;;;;;;10.02;81.88;101745.49;126743;1093;62121;-80
2021/06/13 02:31:41;;;;;;;8.83;2.20;;;;;;;9.92;82.24;101734.08;126805;1093;62845;-79
2021/06/13 02:34:09;;;;;;;6.83;2.80;;;;;;;10.00;82.13;101747.45;126980;1093;62935;-79
2021/06/13 02:36:38;;;;;;;11.60;2.60;;;;;;;9.97;82.51;101745.94;126450;1093;62948;-79
2021/06/13 02:39:07;;;;;;;13.50;2.70;;;;;;;9.94;82.62;101753.33;126324;1093;63501;-78
2021/06/13 02:41:35;;;;;;;12.07;3.67;;;;;;;9.90;83.21;101752.80;126310;1093;63009;-78
2021/06/13 02:44:02;;;;;;;7.80;2.37;;;;;;;9.89;82.94;101758.23;126402;1093;63022;-79
2021/06/13 02:46:29;;;;;;;8.53;2.70;;;;;;;9.88;83.23;101765.36;126239;1093;62961;-78
2021/06/13 02:48:57;;;;;;;11.13;2.87;;;;;;;9.89;83.10;101758.23;126342;1093;63028;-79
2021/06/13 02:51:33;;;;;;;10.23;3.33;;;;;;;9.88;83.07;101767.16;126429;1093;63009;-79
2021/06/13 02:54:05;;;;;;;13.30;3.47;;;;;;;9.86;83.93;101769.97;126790;1093;63027;-80
2021/06/13 02:56:44;;;;;;;8.43;2.77;;;;;;;9.83;84.00;101764.94;126991;1093;62170;-78
2021/06/13 02:59:33;;;;;;;14.53;3.00;;;;;;;9.83;83.32;101764.94;126999;1092;63376;-79
2021/06/13 03:02:01;;;;;;;11.83;2.43;;;;;;;9.85;83.59;101767.45;126848;1093;63106;-79
2021/06/13 03:04:28;;;;;;;9.77;2.73;;;;;;;9.79;83.96;101761.73;126899;1093;62964;-79
2021/06/13 03:06:58;;;;;;;9.00;2.03;;;;;;;9.87;83.36;101776.09;126711;1093;62844;-79
2021/06/13 03:09:30;;;;;;;6.57;2.40;;;;;;;9.87;83.68;101771.63;126872;1093;62763;-80
2021/06/13 03:11:59;;;;;;;6.13;2.33;;;;;;;9.88;83.70;101772.45;126825;1093;62624;-79
2021/06/13 03:14:29;;;;;;;8.33;3.07;;;;;;;9.87;83.59;101770.80;126849;1093;63031;-79
2021/06/13 03:16:57;;;;;;;4.97;2.40;;;;;;;9.89;82.99;101776.80;126738;1092;62188;-79
2021/06/13 03:19:27;;;;;;;11.53;3.13;;;;;;;9.87;83.32;101786.70;126444;1093;62881;-79
2021/06/13 03:21:55;;;;;;;6.13;2.53;;;;;;;9.87;83.70;101776.92;126750;1093;63453;-79
2021/06/13 03:24:24;;;;;;;12.60;2.23;;;;;;;9.86;83.68;101791.17;126802;1093;62990;-79
2021/06/13 03:26:54;;;;;;;9.53;3.40;;;;;;;9.86;83.78;101787.66;126718;1093;62985;-78
2021/06/13 03:29:22;;;;;;;9.00;2.53;;;;;;;9.85;83.57;101793.95;126659;1093;63492;-80
2021/06/13 03:31:50;;;;;;;9.77;2.83;;;;;;;9.83;83.04;101793.27;126583;1092;63014;-80
2021/06/13 03:34:18;;;;;;;10.13;2.77;;;;;;;9.85;84.11;101793.95;126618;1092;63266;-80
2021/06/13 03:36:46;;;;;;;10.53;2.87;;;;;;;9.85;83.43;101799.26;126748;1093;62897;-78
2021/06/13 03:39:15;;;;;;;4.53;1.90;;;;;;;9.86;83.66;101790.31;126546;1092;62994;-80
2021/06/13 03:41:43;;;;;;;7.50;2.13;;;;;;;9.88;83.31;101810.42;126705;1093;62200;-79
2021/06/13 03:44:11;;;;;;;7.63;2.63;;;;;;;9.88;83.42;101805.12;126866;1093;63202;-80
2021/06/13 03:46:40;;;;;;;7.57;2.77;;;;;;;9.91;82.81;101804.82;126623;1092;62939;-80
2021/06/13 03:49:12;;;;;;;9.17;2.70;;;;;;;9.95;83.65;101805.38;126632;1093;63045;-79
2021/06/13 03:51:39;;;;;;;18.23;2.70;;;;;;;9.96;82.81;101813.16;126650;1092;63031;-79
2021/06/13 03:54:06;;;;;;;10.80;3.20;;;;;;;10.01;83.12;101810.11;126635;1093;62128;-80
2021/06/13 03:56:43;;;;;;;7.90;2.90;;;;;;;10.06;82.75;101807.84;126551;1093;64476;-78
2021/06/13 03:59:12;;;;;;;9.50;3.37;;;;;;;10.11;82.67;101812.72;126295;1093;62670;-77
2021/06/13 04:01:40;;;;;;;6.07;2.80;;;;;;;10.11;82.46;101816.19;127627;1092;62464;-79
2021/06/13 04:04:09;;;;;;;8.67;2.77;;;;;;;10.11;82.13;101818.84;128237;1092;62198;-78
2021/06/13 04:06:39;;;;;;;14.40;4.23;;;;;;;10.15;82.57;101822.88;128307;1092;61576;-80
2021/06/13 04:09:08;;;;;;;7.93;2.10;;;;;;;10.16;81.86;101824.56;127434;1093;62957;-79
2021/06/13 04:11:37;;;;;;;6.83;1.97;;;;;;;10.21;82.00;101827.61;126797;1093;62360;-79
2021/06/13 04:14:05;;;;;;;8.30;2.80;;;;;;;10.27;82.13;101830.69;126758;1093;62595;-79
2021/06/13 04:16:32;;;;;;;10.93;3.93;;;;;;;10.33;81.64;101830.14;126721;1093;63051;-79
2021/06/13 04:19:02;;;;;;;7.80;2.83;;;;;;;10.40;81.69;101826.73;126368;1093;62770;-79
2021/06/13 04:21:29;;;;;;;7.23;2.73;;;;;;;10.49;81.62;101827.67;126721;1093;62854;-77
2021/06/13 04:23:59;;;;;;;7.07;2.67;;;;;;;10.58;81.35;101828.61;126308;1093;62711;-78
2021/06/13 04:26:28;;;;;;;12.13;2.70;;;;;;;10.65;80.73;101834.16;126233;1093;63012;-78
2021/06/13 04:28:57;;;;;;;6.23;2.70;;;;;;;10.69;80.72;101830.23;126579;1093;62893;-79
2021/06/13 04:31:28;;;;;;;10.63;3.10;;;;;;;10.73;80.10;101831.61;126425;1092;62897;-79
2021/06/13 04:33:55;;;;;;;6.63;2.67;;;;;;;10.80;80.22;101827.39;126404;1093;62651;-78
2021/06/13 04:36:22;;;;;;;5.47;2.30;;;;;;;10.91;79.76;101834.31;126517;1092;62290;-79
2021/06/13 04:38:50;;;;;;;7.60;2.33;;;;;;;10.98;79.12;101836.20;126203;1092;63857;-79
2021/06/13 04:41:18;;;;;;;6.50;2.73;;;;;;;11.03;78.18;101838.44;126655;1093;62938;-79
2021/06/13 04:43:46;;;;;;;14.67;3.20;;;;;;;11.08;77.66;101827.36;126554;1092;64380;-79
2021/06/13 04:46:17;;;;;;;10.67;3.60;;;;;;;11.14;78.07;101840.04;126897;1092;63049;-79
2021/06/13 04:48:45;;;;;;;16.07;3.40;;;;;;;11.21;76.96;101846.41;126847;1092;63240;-79
2021/06/13 04:51:12;;;;;;;5.40;2.20;;;;;;;11.33;77.12;101855.83;126828;1093;63429;-79
2021/06/13 04:53:52;;;;;;;8.70;2.80;;;;;;;11.41;76.37;101857.71;126695;1093;62709;-80
2021/06/13 04:56:37;;;;;;;6.67;3.13;;;;;;;11.50;75.19;101853.34;126775;1093;63000;-80
2021/06/13 04:59:04;;;;;;;12.03;3.50;;;;;;;11.62;75.73;101841.45;126784;1093;62852;-79
2021/06/13 05:01:32;;;;;;;5.30;1.60;;;;;;;11.72;74.90;101846.70;126679;1092;62765;-78
2021/06/13 05:03:59;;;;;;;5.17;1.97;;;;;;;11.79;74.00;101861.89;126825;1093;63173;-79
2021/06/13 05:06:26;;;;;;;7.10;3.10;;;;;;;11.89;74.17;101855.66;126628;1092;63175;-79
2021/06/13 05:08:53;;;;;;;9.93;3.83;;;;;;;11.98;74.50;101857.38;128074;1092;63002;-79
2021/06/13 05:11:20;;;;;;;4.90;2.03;;;;;;;12.06;73.68;101867.25;127474;1093;62156;-79
2021/06/13 05:13:48;;;;;;;8.90;3.70;;;;;;;12.08;72.59;101854.63;126667;1093;62992;-79
2021/06/13 05:16:15;;;;;;;11.70;3.17;;;;;;;12.13;73.01;101858.48;126303;1093;62984;-78
2021/06/13 05:18:42;;;;;;;14.93;2.93;;;;;;;12.16;72.12;101863.50;126272;1093;64456;-79
2021/06/13 05:21:09;;;;;;;6.80;2.80;;;;;;;12.23;72.89;101859.20;126362;1093;62553;-79
2021/06/13 05:23:36;;;;;;;10.53;2.40;;;;;;;12.25;71.96;101880.34;126307;1093;62812;-78
2021/06/13 05:26:04;;;;;;;12.03;2.70;;;;;;;12.30;71.79;101871.88;126286;1093;63455;-77
2021/06/13 05:28:31;;;;;;;12.43;3.73;;;;;;;12.34;71.67;101870.58;126193;1093;63032;-76
2021/06/13 05:30:58;;;;;;;3.87;1.93;;;;;;;12.46;71.54;101874.64;125948;1093;63154;-78
2021/06/13 05:33:30;;;;;;;9.03;2.77;;;;;;;12.54;71.08;101877.36;126244;1093;64323;-77
2021/06/13 05:35:58;;;;;;;7.60;2.73;;;;;;;12.60;70.34;101876.72;126231;1093;62999;-77
2021/06/13 05:38:25;;;;;;;12.27;3.30;;;;;;;12.65;70.62;101885.05;126146;1093;63109;-78
2021/06/13 05:40:52;;;;;;;5.50;2.17;;;;;;;12.71;70.06;101883.59;126273;1093;62939;-78
2021/06/13 05:43:19;;;;;;;14.73;2.60;;;;;;;12.76;69.87;101877.78;126260;1093;63003;-77
2021/06/13 05:45:46;;;;;;;6.33;2.17;;;;;;;12.78;70.11;101878.45;126273;1093;63164;-77
2021/06/13 05:48:13;;;;;;;12.33;2.77;;;;;;;12.92;69.37;101883.17;125957;1093;63462;-77
2021/06/13 05:50:41;;;;;;;5.73;2.17;;;;;;;12.96;68.76;101897.84;126231;1092;63079;-78
2021/06/13 05:53:08;;;;;;;8.10;2.60;;;;;;;12.97;69.18;101890.68;126276;1093;62355;-77
2021/06/13 05:55:36;;;;;;;7.80;2.93;;;;;;;13.02;68.66;101899.83;126127;1093;63431;-78
2021/06/13 05:58:04;;;;;;;8.30;3.00;;;;;;;13.11;68.43;101891.88;126198;1093;62288;-77
2021/06/13 06:00:33;;;;;;;9.60;3.60;;;;;;;13.23;68.24;101883.41;126282;1093;63008;-77
2021/06/13 06:03:01;;;;;;;7.77;2.30;;;;;;;13.34;67.35;101889.46;126359;1093;63061;-79
2021/06/13 06:05:30;;;;;;;6.83;2.43;;;;;;;13.41;67.61;101890.49;126451;1092;64195;-77
2021/06/13 06:07:57;;;;;;;11.03;2.50;;;;;;;13.54;67.40;101898.84;126005;1092;62941;-78
2021/06/13 06:10:26;;;;;;;10.23;2.53;;;;;;;13.70;67.12;101890.00;126336;1093;63465;-78
2021/06/13 06:12:55;;;;;;;6.93;1.90;;;;;;;13.86;66.41;101900.67;126073;1093;62775;-78
2021/06/13 06:15:26;;;;;;;6.07;2.93;;;;;;;14.01;66.19;101897.34;125934;1093;63452;-78
2021/06/13 06:17:54;;;;;;;4.03;2.13;;;;;;;14.09;64.37;101905.34;126228;1093;62351;-78
2021/06/13 06:20:25;;;;;;;9.03;2.33;;;;;;;14.20;64.19;101912.17;126387;1093;62974;-78
2021/06/13 06:22:52;;;;;;;8.70;2.10;;;;;;;14.28;63.33;101912.16;126220;1092;63838;-79
2021/06/13 06:25:21;;;;;;;6.80;2.33;;;;;;;14.33;64.13;101920.48;126342;1093;62935;-77
2021/06/13 06:27:50;;;;;;;5.90;3.03;;;;;;;14.43;63.47;101925.65;126445;1093;63008;-78
2021/06/13 06:30:18;;;;;;;8.77;2.27;;;;;;;14.52;62.77;101926.45;126383;1093;62837;-78
2021/06/13 06:32:46;;;;;;;9.83;2.87;;;;;;;14.59;62.53;101928.28;126023;1093;63012;-78
2021/06/13 06:35:14;;;;;;;9.00;2.60;;;;;;;14.62;62.36;101922.63;126259;1093;63372;-77
2021/06/13 06:37:42;;;;;;;7.43;2.93;;;;;;;14.61;61.71;101920.11;126210;1093;62797;-77
2021/06/13 06:40:12;;;;;;;7.67;2.80;;;;;;;14.56;62.35;101928.64;125929;1093;62308;-78
2021/06/13 06:42:40;;;;;;;7.27;2.63;;;;;;;14.56;62.27;101927.81;126365;1093;62932;-77
2021/06/13 06:45:10;;;;;;;4.93;1.70;;;;;;;14.60;62.83;101924.63;126295;1092;62755;-77
2021/06/13 06:47:38;;;;;;;8.37;2.47;;;;;;;14.75;62.38;101918.55;125973;1093;62977;-77
2021/06/13 06:50:07;;;;;;;8.80;2.70;;;;;;;14.88;62.63;101921.53;126197;1093;62319;-77
2021/06/13 06:52:35;;;;;;;11.27;2.87;;;;;;;15.00;60.90;101932.64;126310;1093;63554;-77
2021/06/13 06:55:04;;;;;;;10.90;2.90;;;;;;;15.05;61.13;101928.45;126449;1093;62948;-77
2021/06/13 06:57:31;;;;;;;7.40;3.10;;;;;;;15.06;60.31;101924.77;126236;1092;62798;-76
2021/06/13 06:59:58;;;;;;;8.97;2.83;;;;;;;15.12;60.03;101936.61;126288;1093;62378;-77
2021/06/13 07:02:25;;;;;;;7.27;2.13;;;;;;;15.12;60.08;101954.48;126233;1093;63491;-77
2021/06/13 07:04:53;;;;;;;10.30;2.67;;;;;;;15.07;59.59;101961.19;126309;1093;62935;-78
2021/06/13 07:07:21;;;;;;;9.73;2.83;;;;;;;15.03;59.47;101951.02;126890;1093;62961;-80
2021/06/13 07:09:48;;;;;;;5.47;1.90;;;;;;;14.94;58.24;101947.55;127950;1093;62882;-79
2021/06/13 07:12:15;;;;;;;7.20;2.83;;;;;;;14.88;59.57;101953.59;127067;1092;62940;-78
2021/06/13 07:14:42;;;;;;;4.57;1.97;;;;;;;14.96;60.37;101950.89;126342;1093;63479;-79
2021/06/13 07:17:09;;;;;;;9.67;2.33;;;;;;;14.95;60.94;101951.88;126490;1092;62730;-78
2021/06/13 07:19:36;;;;;;;8.37;3.20;;;;;;;14.80;60.20;101956.28;126212;1092;62954;-78
2021/06/13 07:22:03;;;;;;;4.73;2.27;;;;;;;14.76;59.71;101960.30;127971;1093;63018;-79
2021/06/13 07:24:31;;;;;;;7.43;2.03;;;;;;;14.76;60.21;101949.61;128359;1093;62199;-79
2021/06/13 07:26:58;;;;;;;6.00;1.77;;;;;;;14.66;58.96;101945.31;128220;1092;62695;-74
2021/06/13 07:29:25;;;;;;;7.93;2.73;;;;;;;14.68;59.79;101948.64;127987;1093;62507;-74
2021/06/13 07:31:53;;;;;;;5.57;2.10;;;;;;;14.75;57.95;101956.80;128157;1092;62156;-74
2021/06/13 07:34:20;;;;;;;7.23;2.10;;;;;;;14.89;58.22;101950.72;127369;1092;62900;-75
2021/06/13 07:36:48;;;;;;;5.20;2.17;;;;;;;15.26;58.96;101961.78;126231;1093;63549;-73
2021/06/13 07:39:15;;;;;;;4.27;1.53;;;;;;;15.42;53.97;101961.67;126013;1092;64068;-75
2021/06/13 07:41:42;;;;;;;9.40;2.10;;;;;;;15.57;55.34;101963.60;126106;1093;63693;-74
2021/06/13 07:44:09;;;;;;;9.87;3.23;;;;;;;15.76;54.40;101976.54;126168;1092;62948;-74
2021/06/13 07:46:37;;;;;;;5.67;2.00;;;;;;;15.83;53.29;101985.54;126240;1093;63734;-74
2021/06/13 07:49:04;;;;;;;12.47;2.50;;;;;;;15.87;53.45;101980.64;126237;1093;62936;-74
2021/06/13 07:51:31;;;;;;;8.90;2.20;;;;;;;15.92;53.58;101972.08;126299;1093;62890;-73
2021/06/13 07:53:58;;;;;;;6.93;2.53;;;;;;;16.06;53.48;101973.98;126127;1093;62938;-74
2021/06/13 07:56:25;;;;;;;7.23;3.00;;;;;;;16.21;52.43;101980.20;126284;1093;62430;-73
2021/06/13 07:58:52;;;;;;;5.03;1.73;;;;;;;16.27;52.09;101971.44;126908;1093;63003;-74
2021/06/13 08:01:19;;;;;;;7.93;2.50;;;;;;;16.29;52.06;101974.77;126705;1093;62197;-74
2021/06/13 08:03:46;;;;;;;7.63;2.23;;;;;;;16.35;52.57;101988.47;126375;1093;62780;-75
2021/06/13 08:06:14;;;;;;;4.47;1.60;;;;;;;16.25;50.79;101984.18;126147;1093;62942;-74
2021/06/13 08:08:41;;;;;;;3.33;1.63;;;;;;;16.29;51.55;101985.48;126153;1093;64349;-74
2021/06/13 08:11:09;;;;;;;8.20;2.37;;;;;;;16.31;50.47;101993.34;126247;1093;62235;-72
2021/06/13 08:13:37;;;;;;;5.97;2.00;;;;;;;16.42;50.51;101976.83;126161;1093;62921;-73
2021/06/13 08:16:06;;;;;;;5.07;1.90;;;;;;;16.63;49.63;101977.97;125861;1093;63375;-74
2021/06/13 08:18:33;;;;;;;4.23;2.30;;;;;;;16.82;50.46;101973.95;126187;1093;62741;-72
2021/06/13 08:21:00;;;;;;;3.30;1.40;;;;;;;17.05;49.60;101980.03;126343;1093;62289;-73
2021/06/13 08:23:30;;;;;;;3.17;1.63;;;;;;;17.26;49.89;101975.77;126302;1093;62900;-74
2021/06/13 08:26:00;;;;;;;7.17;2.40;;;;;;;17.57;48.81;101977.34;126215;1093;62198;-73
2021/06/13 08:28:28;;;;;;;7.90;2.53;;;;;;;17.70;48.24;101982.84;126198;1093;63405;-74
2021/06/13 08:30:56;;;;;;;4.87;2.03;;;;;;;17.73;48.01;101983.30;126130;1093;63578;-74
2021/06/13 08:33:24;;;;;;;6.93;1.80;;;;;;;17.61;47.63;101982.13;126316;1093;63008;-74
2021/06/13 08:35:52;;;;;;;3.90;1.47;;;;;;;17.34;47.30;101991.75;126248;1092;62846;-74
2021/06/13 08:38:21;;;;;;;5.23;1.83;;;;;;;17.12;47.67;101996.20;126289;1093;63814;-73
2021/06/13 08:40:48;;;;;;;6.70;2.00;;;;;;;17.33;48.97;101984.71;126367;1093;62948;-74
2021/06/13 08:43:16;;;;;;;5.27;2.27;;;;;;;17.60;46.58;101983.16;126261;1092;62399;-74
2021/06/13 08:45:44;;;;;;;10.53;2.83;;;;;;;17.81;47.78;101985.04;126391;1092;62894;-73
2021/06/13 08:48:13;;;;;;;8.97;2.73;;;;;;;18.03;45.22;101983.20;126163;1093;63004;-74
2021/06/13 08:50:41;;;;;;;5.53;2.17;;;;;;;18.13;44.85;101999.82;126208;1092;63408;-74
2021/06/13 08:53:08;;;;;;;7.07;2.57;;;;;;;18.14;45.35;102006.02;126294;1093;62222;-74
2021/06/13 08:55:36;;;;;;;5.00;1.90;;;;;;;18.08;45.64;102007.61;126114;1093;63016;-74
2021/06/13 08:58:04;;;;;;;4.80;1.63;;;;;;;17.99;45.82;102008.77;126273;1093;62624;-73
2021/06/13 09:00:32;;;;;;;5.47;2.00;;;;;;;17.84;45.81;102000.78;126427;1093;63033;-73
2021/06/13 09:03:03;;;;;;;6.60;2.47;;;;;;;17.69;45.98;102008.03;126523;1093;63009;-74
2021/06/13 09:05:30;;;;;;;4.97;1.90;;;;;;;17.51;47.01;102001.23;126518;1093;64459;-74
2021/06/13 09:08:00;;;;;;;7.70;2.10;;;;;;;17.35;46.99;101996.08;126490;1093;62402;-75
2021/06/13 09:10:30;;;;;;;5.70;2.30;;;;;;;17.42;47.45;102002.34;126451;1093;64399;-74
2021/06/13 09:13:22;;;;;;;5.90;2.17;;;;;;;17.61;46.17;102000.09;126418;1093;63393;-75
2021/06/13 09:16:01;;;;;;;4.40;1.70;;;;;;;18.00;45.46;101991.66;126581;1093;62883;-75
2021/06/13 09:18:35;;;;;;;6.23;2.27;;;;;;;18.39;43.64;101993.00;126578;1093;63095;-74
2021/06/13 09:21:14;;;;;;;3.30;1.33;;;;;;;18.40;43.64;101993.83;126681;1091;63394;-73
2021/06/13 09:23:42;;;;;;;6.70;1.97;;;;;;;18.24;44.21;102000.33;126339;1093;62675;-77
2021/06/13 09:26:16;;;;;;;4.13;1.40;;;;;;;18.11;43.76;102003.73;126114;1093;63041;-74
2021/06/13 09:28:52;;;;;;;7.83;2.13;;;;;;;17.92;44.59;101992.60;126341;1093;62941;-74
2021/06/13 09:31:23;;;;;;;4.83;1.70;;;;;;;17.72;45.15;102018.37;126015;1093;62499;-74
2021/06/13 09:33:55;;;;;;;6.90;1.87;;;;;;;17.67;44.87;102002.02;126482;1092;62216;-74
2021/06/13 09:36:25;;;;;;;4.60;1.80;;;;;;;17.93;45.88;101999.62;126324;1093;63031;-74
2021/06/13 09:38:57;;;;;;;6.47;2.00;;;;;;;18.37;45.57;101999.60;126423;1092;62195;-74
2021/06/13 09:41:25;;;;;;;5.23;1.50;;;;;;;18.71;42.45;101994.25;126519;1093;62893;-79
2021/06/13 09:44:00;;;;;;;7.77;1.70;;;;;;;18.83;42.29;101996.41;126077;1092;62158;-76
2021/06/13 09:46:31;;;;;;;3.70;1.60;;;;;;;18.62;43.18;101992.77;126396;1093;63000;-75
2021/06/13 09:49:06;;;;;;;10.13;2.27;;;;;;;18.39;43.73;102006.44;126884;1092;62659;-77
2021/06/13 09:51:39;;;;;;;4.20;1.50;;;;;;;18.17;44.22;102000.27;126692;1093;62563;-76
2021/06/13 09:54:11;;;;;;;5.27;1.87;;;;;;;18.20;44.64;101999.88;126439;1092;64115;-77
2021/06/13 09:56:41;;;;;;;3.97;1.90;;;;;;;17.97;43.55;101991.20;127132;1093;62817;-77
2021/06/13 09:59:15;;;;;;;4.83;1.60;;;;;;;17.75;43.79;102001.08;128698;1093;62189;-77
2021/06/13 10:01:43;;;;;;;4.55;2.10;;;;;;;17.93;44.36;101999.62;127329;1093;63338;-76
2021/06/13 10:04:20;;;;;;;4.20;1.40;;;;;;;18.23;43.54;101999.47;126430;1092;62861;-76
2021/06/13 10:07:21;;;;;;;6.33;2.57;;;;;;;18.74;43.23;101996.56;126298;1093;62967;-76
2021/06/13 10:09:53;;;;;;;6.87;1.40;;;;;;;18.93;40.55;101999.58;126159;1093;62938;-76
2021/06/13 10:12:21;;;;;;;4.47;1.73;;;;;;;19.30;41.98;102005.56;127139;1093;63035;-76
2021/06/13 10:14:50;;;;;;;5.37;1.67;;;;;;;19.39;40.77;102003.52;126025;1093;62962;-74
2021/06/13 10:17:17;;;;;;;3.60;1.33;;;;;;;19.45;41.04;101998.16;126315;1093;63253;-76
2021/06/13 10:19:47;;;;;;;4.17;1.60;;;;;;;19.46;41.34;101997.11;126275;1093;62926;-76
2021/06/13 10:22:16;;;;;;;5.50;1.50;;;;;;;19.26;41.96;102007.81;126425;1093;64465;-76
2021/06/13 10:24:47;;;;;;;6.53;1.50;;;;;;;19.24;42.34;102000.98;126378;1093;63018;-75
2021/06/13 10:27:19;;;;;;;6.03;2.03;;;;;;;19.35;41.57;101997.70;126233;1093;62958;-75
2021/06/13 10:29:48;;;;;;;6.33;2.10;;;;;;;19.27;41.47;102005.95;126113;1093;63046;-75
2021/06/13 10:32:25;;;;;;;4.30;1.77;;;;;;;19.00;41.64;102021.13;126450;1093;63550;-76
2021/06/13 10:34:55;;;;;;;5.27;1.97;;;;;;;18.68;42.17;102008.10;126035;1093;62962;-76
2021/06/13 10:37:22;;;;;;;3.77;2.43;;;;;;;18.72;41.13;101997.77;126170;1092;62904;-75
2021/06/13 10:39:49;;;;;;;4.23;1.70;;;;;;;18.74;41.72;101991.19;126229;1093;63035;-76
2021/06/13 10:42:19;;;;;;;4.87;2.00;;;;;;;18.80;41.80;102018.33;126282;1093;62957;-76
2021/06/13 10:44:49;;;;;;;4.10;1.90;;;;;;;18.88;42.36;101991.29;126011;1093;63005;-75
2021/06/13 10:47:17;;;;;;;6.87;2.30;;;;;;;19.05;42.79;101992.61;126425;1092;62926;-76
2021/06/13 10:49:59;;;;;;;4.97;1.87;;;;;;;18.98;43.72;101996.29;126215;1093;63105;-76
2021/06/13 10:52:27;;;;;;;8.70;1.87;;;;;;;18.95;43.79;102002.90;126216;1093;63177;-76
2021/06/13 10:55:00;;;;;;;5.93;1.90;;;;;;;19.24;44.53;101995.60;126620;1093;62938;-76
2021/06/13 10:57:36;;;;;;;4.83;1.77;;;;;;;19.55;43.17;101998.61;126188;1093;63462;-76
2021/06/13 11:00:27;;;;;;;5.17;1.67;;;;;;;19.84;41.29;101993.93;126330;1093;62903;-76
2021/06/13 11:02:57;;;;;;;4.40;1.80;;;;;;;20.23;41.13;101988.77;126310;1093;62807;-75
2021/06/13 11:05:52;;;;;;;6.00;1.83;;;;;;;20.43;40.54;101999.56;126312;1092;62993;-75
2021/06/13 11:08:19;;;;;;;3.07;1.50;;;;;;;20.33;39.80;102008.88;126198;1093;63144;-76
2021/06/13 11:10:47;;;;;;;6.23;1.70;;;;;;;20.14;38.82;102001.63;126342;1092;63008;-76
2021/06/13 11:13:23;;;;;;;6.87;1.90;;;;;;;19.93;38.89;102008.88;126367;1093;62821;-76
2021/06/13 11:15:52;;;;;;;6.07;1.73;;;;;;;20.02;40.12;102008.66;126323;1093;63715;-76
2021/06/13 11:18:23;;;;;;;5.03;2.07;;;;;;;20.13;40.61;102010.76;126461;1093;62962;-76
2021/06/13 11:21:01;;;;;;;2.97;1.90;;;;;;;19.78;39.69;102018.98;127775;1093;62185;-75
2021/06/13 11:23:28;;;;;;;3.63;1.57;;;;;;;20.00;40.89;102008.03;126425;1092;62904;-74
2021/06/13 11:25:57;;;;;;;4.53;1.97;;;;;;;20.21;39.87;102015.09;126307;1093;62184;-75
2021/06/13 11:28:41;;;;;;;5.57;2.10;;;;;;;20.42;39.97;102011.36;125989;1093;63026;-75